Time;durP1;ratioP1;P1;durP2;ratioP2;P2;SDS_P1;SDS_P2;PMS_P1;PMS_P2;Temp;Humidity;BMP_temperature;BMP_pressure;BME280_temperature;BME280_humidity;BME280_pressure;Samples;Min_cycle;Max_cycle;Signal;HPM_P1;HPM_P2
2021/06/28 00:01:34;;;;;;;2.55;1.52;;;21.00;64.70;;;23.79;53.32;101452.63;5009528;28;97089;-72
2021/06/28 00:04:10;;;;;;;1.80;0.75;;;21.00;64.70;;;23.78;53.39;101459.28;5003132;28;98012;-72
2021/06/28 00:06:39;;;;;;;3.22;1.77;;;21.00;64.80;;;23.79;53.33;101452.63;5007001;28;96820;-72
2021/06/28 00:09:08;;;;;;;0.63;0.57;;;21.00;64.70;;;23.77;53.41;101446.75;5009436;28;96950;-72
2021/06/28 00:11:37;;;;;;;2.88;1.48;;;21.00;64.80;;;23.73;53.51;101454.13;5026781;27;97541;-72
2021/06/28 00:14:06;;;;;;;0.98;0.95;;;21.00;64.80;;;23.71;53.62;101449.00;5005632;28;96817;-72
2021/06/28 00:16:35;;;;;;;0.45;0.45;;;21.00;64.90;;;23.66;53.35;101443.06;5007523;28;97998;-72
2021/06/28 00:19:05;;;;;;;1.98;1.67;;;20.90;64.80;;;23.60;53.46;101445.38;5028128;27;96972;-72
2021/06/28 00:21:37;;;;;;;0.95;0.95;;;20.90;64.80;;;23.51;53.94;101444.84;5006724;28;96768;-72
2021/06/28 00:24:07;;;;;;;;;;;20.90;64.80;;;23.47;53.67;101440.50;5005990;28;97025;-72
2021/06/28 00:26:37;;;;;;;1.70;0.95;;;20.80;65.00;;;23.37;53.77;101439.19;5009762;28;96934;-72
2021/06/28 00:29:06;;;;;;;1.45;1.08;;;20.80;65.00;;;23.35;54.01;101437.97;5005949;28;97102;-72
2021/06/28 00:31:35;;;;;;;1.35;1.08;;;20.80;65.00;;;23.36;53.99;101425.88;5007104;28;97475;-72
2021/06/28 00:34:05;;;;;;;0.65;0.47;;;20.80;65.10;;;23.36;54.13;101423.94;5003153;28;98103;-72
2021/06/28 00:36:36;;;;;;;1.05;1.05;;;20.70;65.20;;;23.36;53.77;101423.94;5007043;28;100697;-72
2021/06/28 00:39:05;;;;;;;1.40;1.02;;;20.70;65.30;;;23.37;53.98;101421.97;5006393;28;97005;-72
2021/06/28 00:41:34;;;;;;;4.03;0.88;;;20.70;65.20;;;23.40;53.82;101421.22;5007596;28;96871;-72
2021/06/28 00:44:05;;;;;;;8.85;1.25;;;20.70;65.30;;;23.46;53.85;101414.31;5026157;27;99100;-72
2021/06/28 00:46:34;;;;;;;1.10;0.90;;;20.70;65.30;;;23.40;53.94;101404.81;5004051;28;96906;-72
2021/06/28 00:49:04;;;;;;;1.95;1.17;;;20.70;65.50;;;23.25;54.01;101403.06;5007274;28;96998;-72
2021/06/28 00:51:34;;;;;;;1.88;1.40;;;20.60;65.30;;;23.00;54.68;101413.63;5011966;28;96839;-72
2021/06/28 00:54:05;;;;;;;1.00;0.95;;;20.60;65.30;;;22.85;54.83;101402.84;5001906;28;96968;-72
2021/06/28 00:56:34;;;;;;;1.02;0.95;;;20.50;65.40;;;22.79;54.84;101401.56;5009717;28;97046;-73
2021/06/28 00:59:05;;;;;;;1.27;0.68;;;20.40;65.50;;;22.68;55.15;101400.63;4988495;28;96782;-73
2021/06/28 01:01:34;;;;;;;1.75;1.00;;;20.30;65.60;;;22.59;55.14;101395.41;5005699;28;97038;-72
2021/06/28 01:04:05;;;;;;;2.90;1.35;;;20.30;65.70;;;22.61;55.28;101390.38;4998276;28;97891;-73
2021/06/28 01:06:35;;;;;;;1.00;0.95;;;20.20;65.80;;;22.66;55.14;101384.59;5002774;28;97660;-73
2021/06/28 01:09:06;;;;;;;1.33;0.90;;;20.20;65.90;;;22.63;54.83;101376.34;5004628;28;96947;-73
2021/06/28 01:11:35;;;;;;;1.05;0.63;;;20.20;65.90;;;22.61;55.04;101379.44;5009361;28;97576;-73
2021/06/28 01:14:05;;;;;;;1.75;0.73;;;20.20;66.00;;;22.66;54.84;101383.81;5003680;28;98158;-73
2021/06/28 01:16:34;;;;;;;1.27;1.08;;;20.20;66.00;;;22.67;54.72;101386.19;5008534;28;96848;-73
2021/06/28 01:19:06;;;;;;;1.40;0.88;;;20.20;66.00;;;22.75;54.89;101390.59;5005297;28;97259;-73
2021/06/28 01:21:42;;;;;;;1.77;0.50;;;20.10;66.00;;;22.71;54.89;101402.63;5009342;28;96921;-73
2021/06/28 01:24:13;;;;;;;4.07;1.20;;;20.20;66.10;;;22.76;54.76;101397.63;5007146;28;98057;-73
2021/06/28 01:26:42;;;;;;;1.55;1.42;;;20.20;66.10;;;22.79;54.46;101390.63;5027685;27;98369;-73
2021/06/28 01:29:11;;;;;;;0.10;0.10;;;20.20;66.10;;;22.87;54.61;101397.81;5004947;28;96814;-73
2021/06/28 01:31:39;;;;;;;0.88;0.80;;;20.20;66.10;;;22.92;54.61;101384.59;5005084;28;97328;-73
2021/06/28 01:34:08;;;;;;;0.20;0.20;;;20.20;66.10;;;22.92;54.53;101395.53;5007406;28;96802;-73
2021/06/28 01:36:44;;;;;;;2.35;1.38;;;20.20;66.00;;;22.92;54.52;101383.81;5008293;28;101179;-73
2021/06/28 01:39:14;;;;;;;3.25;0.63;;;20.30;66.10;;;22.85;54.51;101372.78;5005139;28;96889;-73
2021/06/28 01:41:43;;;;;;;0.47;0.47;;;20.20;66.60;;;22.88;55.08;101367.38;5003415;28;97090;-73
2021/06/28 01:44:11;;;;;;;0.98;0.77;;;20.20;66.10;;;22.88;54.67;101366.59;5025908;27;97006;-73
2021/06/28 01:46:40;;;;;;;3.03;0.88;;;20.30;66.10;;;22.85;54.41;101362.63;4987787;28;97153;-73
2021/06/28 01:49:09;;;;;;;0.68;0.68;;;20.30;66.10;;;22.86;54.55;101369.69;4998569;28;97110;-73
2021/06/28 01:51:38;;;;;;;0.43;0.43;;;20.30;66.10;;;22.96;54.33;101379.19;5007545;28;97983;-73
2021/06/28 01:54:07;;;;;;;1.00;0.57;;;20.30;66.10;;;22.95;54.60;101380.34;5007683;28;98091;-73
2021/06/28 01:56:36;;;;;;;2.00;1.13;;;20.30;66.10;;;22.89;54.81;101384.56;5005343;27;97207;-73
2021/06/28 01:59:05;;;;;;;0.17;0.17;;;20.30;66.20;;;22.92;54.31;101392.78;5005558;28;96789;-73
2021/06/28 02:01:34;;;;;;;0.73;0.73;;;20.20;66.10;;;22.93;54.43;101386.16;5003037;28;96763;-73
2021/06/28 02:04:05;;;;;;;2.40;1.00;;;20.20;66.10;;;22.94;54.44;101386.97;5005705;28;97957;-73
2021/06/28 02:06:34;;;;;;;0.77;0.77;;;20.30;66.20;;;22.92;54.41;101379.13;5022888;27;97137;-73
2021/06/28 02:09:05;;;;;;;2.22;0.75;;;20.20;66.20;;;22.93;54.57;101374.47;5004799;28;97224;-73
2021/06/28 02:11:34;;;;;;;1.92;1.27;;;20.20;66.20;;;22.86;54.85;101379.84;5039672;27;97058;-73
2021/06/28 02:14:06;;;;;;;1.88;0.63;;;20.20;66.20;;;22.81;54.83;101389.13;5003066;28;97846;-73
2021/06/28 02:16:35;;;;;;;0.73;0.73;;;20.20;66.30;;;22.80;54.85;101392.22;5006881;28;97893;-73
2021/06/28 02:19:05;;;;;;;0.95;0.95;;;20.20;66.30;;;22.82;54.77;101396.16;5001877;28;97727;-73
2021/06/28 02:21:33;;;;;;;5.30;2.28;;;20.10;66.30;;;22.77;55.29;101395.69;5027912;27;97060;-73
2021/06/28 02:24:04;;;;;;;0.55;0.55;;;20.10;66.30;;;22.84;54.77;101396.59;5028124;27;96773;-73
2021/06/28 02:26:33;;;;;;;1.42;0.50;;;20.10;66.40;;;22.69;55.34;101402.19;5004154;28;97182;-73
2021/06/28 02:29:03;;;;;;;2.25;1.02;;;20.10;66.40;;;22.64;55.28;101389.63;5002604;28;96750;-73
2021/06/28 02:31:34;;;;;;;2.35;1.45;;;20.00;66.40;;;22.58;55.10;101380.16;5005276;28;97223;-73
2021/06/28 02:34:05;;;;;;;1.13;0.63;;;20.00;66.40;;;22.48;55.28;101385.47;5006114;28;97979;-73
2021/06/28 02:36:34;;;;;;;0.85;0.68;;;20.00;66.50;;;22.44;55.53;101379.16;5022068;27;98788;-73
2021/06/28 02:39:09;;;;;;;0.98;0.57;;;19.90;66.60;;;22.36;55.59;101369.25;4999550;28;97803;-73
2021/06/28 02:41:44;;;;;;;5.00;1.60;;;19.80;66.50;;;22.31;55.60;101364.09;5006844;28;96982;-73
2021/06/28 02:44:33;;;;;;;1.90;0.65;;;19.80;66.60;;;22.23;55.57;101358.88;4961029;28;97975;-73
2021/06/28 02:47:06;;;;;;;0.50;0.50;;;19.70;66.60;;;22.21;55.36;101369.38;5001427;28;97642;-73
2021/06/28 02:49:34;;;;;;;0.38;0.38;;;19.70;66.70;;;22.22;55.74;101369.00;5008659;28;96790;-73
2021/06/28 02:52:06;;;;;;;3.15;0.68;;;19.60;66.70;;;22.19;55.66;101366.97;5003400;28;97251;-73
2021/06/28 02:54:35;;;;;;;0.82;0.82;;;19.60;66.80;;;22.02;55.44;101372.13;5023526;27;96885;-73
2021/06/28 02:57:05;;;;;;;0.55;0.55;;;19.50;66.80;;;21.98;55.74;101365.81;5002816;28;96783;-73
2021/06/28 02:59:33;;;;;;;1.27;1.10;;;19.50;66.80;;;21.91;56.43;101365.69;5006034;28;96724;-72
2021/06/28 03:02:15;;;;;;;1.05;0.60;;;19.40;66.90;;;21.86;55.50;101358.59;5085734;27;96676;-72
2021/06/28 03:04:56;;;;;;;2.65;1.90;;;19.40;66.90;;;21.85;55.57;101357.00;5077412;27;97141;-72
2021/06/28 03:07:39;;;;;;;1.58;1.00;;;19.30;66.90;;;21.79;55.73;101358.47;5065452;27;96874;-72
2021/06/28 03:10:21;;;;;;;1.10;0.95;;;19.30;67.00;;;21.73;56.44;101372.75;5052501;27;96933;-72
2021/06/28 03:13:04;;;;;;;0.75;0.57;;;19.30;67.00;;;21.72;56.38;101377.44;5086805;27;96564;-72
2021/06/28 03:15:46;;;;;;;0.32;0.32;;;19.20;67.00;;;21.71;56.16;101373.13;5049007;27;96789;-72
2021/06/28 03:18:28;;;;;;;1.02;1.00;;;19.20;67.10;;;21.71;55.95;101377.78;5061283;27;96995;-72
2021/06/28 03:21:11;;;;;;;0.52;0.52;;;19.20;67.10;;;21.69;56.42;101372.69;5066280;27;98005;-72
2021/06/28 03:23:53;;;;;;;1.85;1.45;;;19.20;67.10;;;21.76;55.87;101375.56;5106491;27;97163;-72
2021/06/28 03:26:34;;;;;;;3.13;0.50;;;19.20;67.20;;;21.77;55.44;101374.41;5067056;27;96698;-72
2021/06/28 03:29:16;;;;;;;1.48;0.52;;;19.10;67.10;;;21.81;55.68;101377.22;5088618;27;96816;-72
2021/06/28 03:31:56;;;;;;;1.35;0.95;;;19.10;67.10;;;21.90;55.62;101392.19;5046923;27;97949;-72
2021/06/28 03:34:38;;;;;;;3.28;0.52;;;19.20;67.10;;;21.91;55.46;101388.31;5053137;27;96844;-72
2021/06/28 03:37:19;;;;;;;1.48;1.38;;;19.20;67.10;;;21.89;55.24;101384.38;5065017;27;96735;-72
2021/06/28 03:40:04;;;;;;;0.25;0.25;;;19.30;67.20;;;21.95;54.86;101389.19;5067429;27;96777;-72
2021/06/28 03:42:46;;;;;;;0.28;0.28;;;19.20;67.00;;;21.99;54.80;101386.50;5069140;27;99818;-72
2021/06/28 03:45:27;;;;;;;5.65;1.77;;;19.20;67.00;;;21.99;55.07;101387.31;5053858;27;96750;-72
2021/06/28 03:48:11;;;;;;;0.70;0.65;;;19.30;67.00;;;22.06;55.30;101386.63;5072723;27;97319;-72
2021/06/28 03:50:53;;;;;;;1.55;1.40;;;19.30;67.00;;;22.10;55.08;101385.56;5069670;27;96834;-72
2021/06/28 03:53:35;;;;;;;1.00;0.95;;;19.30;67.00;;;22.09;55.45;101383.97;5053422;27;96794;-72
2021/06/28 03:56:16;;;;;;;0.85;0.85;;;19.30;66.90;;;22.17;55.07;101385.66;5028400;28;96705;-72
2021/06/28 03:58:57;;;;;;;2.88;0.60;;;19.30;66.90;;;22.20;54.39;101382.22;5066451;27;96737;-72
2021/06/28 04:01:39;;;;;;;1.88;1.40;;;19.30;66.90;;;22.03;55.57;101379.97;5048158;27;97012;-72
2021/06/28 04:04:20;;;;;;;0.80;0.80;;;19.40;67.00;;;22.05;54.96;101379.59;5066762;27;96864;-72
2021/06/28 04:07:03;;;;;;;1.10;0.52;;;19.40;66.90;;;22.12;54.95;101377.78;5066191;27;96702;-72
2021/06/28 04:09:45;;;;;;;0.75;0.75;;;19.40;66.90;;;22.18;54.68;101373.59;5069502;27;96739;-72
2021/06/28 04:12:26;;;;;;;3.83;0.70;;;19.40;66.80;;;22.27;55.14;101369.47;5063660;27;97272;-72
2021/06/28 04:15:11;;;;;;;0.77;0.75;;;19.40;66.80;;;22.30;54.30;101367.97;5047839;27;96825;-72
2021/06/28 04:17:55;;;;;;;2.80;1.92;;;19.50;66.80;;;22.36;54.45;101378.22;5059623;27;96915;-72
2021/06/28 04:20:36;;;;;;;0.98;0.90;;;19.50;66.70;;;22.49;54.61;101382.38;5034094;27;97554;-72
2021/06/28 04:23:19;;;;;;;1.98;1.27;;;19.50;66.70;;;22.52;54.30;101373.44;5067278;27;96783;-72
2021/06/28 04:25:59;;;;;;;0.22;0.22;;;19.60;66.60;;;22.63;54.57;101374.41;5068942;27;96976;-72
2021/06/28 04:28:42;;;;;;;6.68;1.38;;;19.70;66.60;;;22.77;54.17;101379.28;5053254;27;97839;-72
2021/06/28 04:31:24;;;;;;;1.75;1.65;;;19.70;66.40;;;22.93;53.52;101374.47;5068789;27;96838;-72
2021/06/28 04:34:06;;;;;;;1.65;1.05;;;19.80;66.30;;;23.10;53.32;101371.19;5067050;27;96631;-72
2021/06/28 04:36:47;;;;;;;1.30;1.20;;;20.00;66.10;;;23.13;53.45;101365.03;5066177;27;96848;-72
2021/06/28 04:39:28;;;;;;;3.35;1.83;;;20.00;65.90;;;23.20;53.13;101370.59;5086584;27;96987;-72
2021/06/28 04:42:10;;;;;;;1.42;1.25;;;20.10;65.90;;;23.30;52.82;101373.47;5062769;27;96886;-72
2021/06/28 04:44:50;;;;;;;0.90;0.88;;;20.20;65.80;;;23.39;52.96;101371.22;5118069;27;96592;-72
2021/06/28 04:47:33;;;;;;;1.60;1.50;;;20.20;65.70;;;23.39;53.08;101379.44;5067729;27;96731;-72
2021/06/28 04:50:16;;;;;;;0.30;0.30;;;20.30;65.70;;;23.47;53.16;101380.31;5064005;27;96833;-72
2021/06/28 04:52:59;;;;;;;0.60;0.60;;;20.40;65.60;;;23.60;52.91;101381.63;5104104;27;96828;-71
2021/06/28 04:55:43;;;;;;;0.38;0.28;;;20.50;65.50;;;23.72;52.60;101384.09;5067038;27;96641;-72
2021/06/28 04:58:24;;;;;;;5.15;1.58;;;20.60;65.40;;;23.80;52.87;101380.31;5089270;27;96607;-72
2021/06/28 05:01:06;;;;;;;0.47;0.47;;;20.70;65.40;;;23.82;52.48;101380.75;5054016;27;96773;-72
2021/06/28 05:03:47;;;;;;;5.68;0.70;;;20.70;65.20;;;23.89;52.71;101387.09;5089141;27;96886;-72
2021/06/28 05:06:28;;;;;;;0.73;0.73;;;20.80;65.10;;;23.90;52.96;101372.25;5071532;27;97180;-72
2021/06/28 05:09:10;;;;;;;1.65;1.30;;;20.90;65.00;;;23.91;52.86;101382.03;5111297;27;97251;-72
2021/06/28 05:11:51;;;;;;;0.80;0.80;;;20.90;65.10;;;23.92;52.87;101381.63;5067830;27;96863;-72
2021/06/28 05:14:35;;;;;;;2.15;0.98;;;20.90;65.10;;;23.92;53.17;101378.13;5044075;27;96723;-71
2021/06/28 05:17:16;;;;;;;1.27;0.85;;;20.90;65.10;;;23.99;52.74;101378.97;5086438;27;96829;-72
2021/06/28 05:19:57;;;;;;;0.63;0.63;;;20.90;65.10;;;24.03;52.96;101377.06;5069642;27;96696;-72
2021/06/28 05:22:50;;;;;;;0.52;0.52;;;21.00;65.10;;;24.16;52.75;101370.16;5057117;27;96857;-72
2021/06/28 05:25:33;;;;;;;2.40;1.15;;;21.10;65.20;;;24.26;52.38;101361.22;5054797;27;96694;-72
2021/06/28 05:28:15;;;;;;;2.30;0.73;;;21.10;65.10;;;24.33;52.42;101355.84;5065956;27;96588;-72
2021/06/28 05:31:08;;;;;;;0.73;0.50;;;21.20;65.10;;;24.59;52.31;101349.41;5065331;27;96672;-72
2021/06/28 05:33:49;;;;;;;1.15;1.05;;;21.70;65.00;;;25.97;49.75;101359.50;5065000;27;96900;-72
2021/06/28 05:36:33;;;;;;;1.58;1.48;;;22.80;62.30;;;25.94;50.04;101360.25;5064330;27;96655;-73
2021/06/28 05:39:14;;;;;;;0.30;0.30;;;23.10;61.90;;;26.67;49.45;101362.28;5104238;27;96709;-72
2021/06/28 05:42:07;;;;;;;3.00;1.20;;;23.60;62.00;;;27.22;49.24;101373.59;5067384;27;97301;-72
2021/06/28 05:44:48;;;;;;;2.65;1.67;;;24.60;61.30;;;28.77;46.90;101363.97;5069792;27;96886;-72
2021/06/28 05:47:29;;;;;;;4.90;2.63;;;25.10;60.70;;;29.44;46.42;101360.06;5046801;27;96840;-72
2021/06/28 05:50:17;;;;;;;0.85;0.75;;;25.40;60.90;;;30.87;44.69;101359.84;5029731;27;96735;-71
2021/06/28 05:52:58;;;;;;;1.38;0.95;;;26.80;60.30;;;33.03;41.65;101354.06;5057945;27;96693;-72
2021/06/28 05:55:38;;;;;;;0.98;0.93;;;28.80;58.20;;;34.42;40.11;101358.13;5053498;27;96861;-72
2021/06/28 05:58:24;;;;;;;1.63;0.80;;;29.70;57.20;;;34.16;41.85;101364.16;5055702;27;96703;-72
2021/06/28 06:01:07;;;;;;;2.55;1.75;;;31.20;56.70;;;34.96;42.25;101357.84;5055440;27;97866;-73
2021/06/28 06:03:47;;;;;;;1.67;1.40;;;33.10;55.00;;;35.68;43.15;101358.34;5068239;27;96934;-72
2021/06/28 06:06:29;;;;;;;26.40;1.48;;;34.90;53.50;;;37.78;41.14;101343.13;5067920;27;96909;-73
2021/06/28 06:09:12;;;;;;;3.22;1.63;;;36.60;52.50;;;41.22;36.34;101338.31;5065882;27;96955;-72
2021/06/28 06:11:53;;;;;;;3.20;1.52;;;38.10;51.70;;;43.43;34.25;101324.03;5064054;27;96800;-73
2021/06/28 06:14:36;;;;;;;1.05;0.98;;;39.40;51.20;;;44.74;33.36;101322.94;5032905;27;96797;-73
2021/06/28 06:17:16;;;;;;;1.98;1.00;;;40.40;50.90;;;46.10;32.55;101328.69;5027923;27;97383;-73
2021/06/28 06:19:58;;;;;;;2.45;1.00;;;41.40;50.90;;;46.67;32.46;101328.25;5064890;27;97193;-73
2021/06/28 06:22:40;;;;;;;1.52;1.15;;;42.00;51.00;;;46.82;33.21;101329.31;5061887;27;97151;-73
2021/06/28 06:25:20;;;;;;;2.25;1.40;;;42.40;51.20;;;47.57;33.19;101321.41;5045551;27;97074;-73
2021/06/28 06:28:04;;;;;;;1.65;1.38;;;42.90;51.40;;;48.29;32.98;101329.31;5067028;27;97756;-74
2021/06/28 06:30:45;;;;;;;2.13;0.85;;;43.40;51.30;;;48.70;32.53;101333.88;5049898;27;96642;-74
2021/06/28 06:33:27;;;;;;;1.25;0.60;;;43.90;51.20;;;49.52;32.34;101321.75;5025920;27;96974;-74
2021/06/28 06:36:08;;;;;;;1.17;0.68;;;44.40;51.20;;;50.26;31.81;101318.63;5074195;27;96791;-75
2021/06/28 06:38:49;;;;;;;5.65;1.63;;;45.10;50.90;;;50.67;31.74;101302.06;5065591;27;96867;-75
2021/06/28 06:41:32;;;;;;;0.85;0.85;;;45.50;50.80;;;51.47;31.26;101218.31;5047196;27;96762;-75
2021/06/28 06:44:14;;;;;;;1.17;1.00;;;46.00;50.60;;;52.05;31.04;101206.50;5064673;27;97144;-75
2021/06/28 06:46:57;;;;;;;1.13;0.95;;;46.50;50.70;;;52.69;30.17;101195.81;5057117;27;96785;-75
2021/06/28 06:49:38;;;;;;;1.40;0.98;;;47.10;50.50;;;53.16;30.23;101180.50;5056255;27;96705;-76
2021/06/28 06:52:20;;;;;;;0.80;0.80;;;47.50;50.30;;;53.33;30.30;101175.56;5091022;27;96794;-75
2021/06/28 06:55:02;;;;;;;1.73;0.95;;;47.90;50.10;;;53.77;29.96;101224.38;5061247;27;96709;-75
2021/06/28 06:57:45;;;;;;;4.43;2.20;;;48.20;50.10;;;54.00;30.13;101302.38;5077839;27;96788;-75
2021/06/28 07:00:27;;;;;;;0.68;0.68;;;48.30;49.90;;;53.49;30.46;101287.97;5067510;27;96690;-75
2021/06/28 07:03:09;;;;;;;1.35;1.25;;;48.10;50.20;;;53.44;30.88;101260.31;5068962;27;96664;-74
2021/06/28 07:05:51;;;;;;;2.10;1.30;;;47.90;50.50;;;52.80;31.24;101192.47;5066750;27;96884;-74
2021/06/28 07:08:35;;;;;;;4.85;1.42;;;47.50;50.80;;;53.43;30.69;101181.38;5071061;27;97059;-75
2021/06/28 07:11:16;;;;;;;1.73;1.33;;;47.50;50.90;;;53.93;29.57;101180.59;5056114;27;96614;-75
2021/06/28 07:13:59;;;;;;;5.65;1.13;;;47.70;50.80;;;54.40;29.11;101183.00;5071906;27;97349;-74
2021/06/28 07:16:40;;;;;;;2.80;1.08;;;47.90;50.70;;;54.86;29.13;101186.66;5069222;27;96615;-74
2021/06/28 07:19:22;;;;;;;0.63;0.63;;;48.10;50.60;;;55.33;28.92;101203.25;5062367;27;96733;-72
2021/06/28 07:22:04;;;;;;;0.60;0.60;;;48.50;50.50;;;55.45;28.12;101215.69;5071781;27;96845;-75
2021/06/28 07:24:45;;;;;;;0.95;0.80;;;48.90;50.20;;;55.67;27.80;101228.84;5071221;27;96853;-75
2021/06/28 07:27:26;;;;;;;2.20;1.02;;;49.00;50.20;;;56.00;27.54;101235.63;5071933;27;97586;-73
2021/06/28 07:30:12;;;;;;;2.72;1.55;;;48.80;50.10;;;56.14;27.39;101243.22;5071066;27;96670;-75
2021/06/28 07:32:54;;;;;;;2.00;1.67;;;48.70;50.20;;;56.30;27.49;101247.28;5066696;27;99589;-72
2021/06/28 07:46:00;;;;;;;3.15;1.55;;;48.60;50.30;;;57.35;26.08;101262.72;5092851;27;96833;-73
2021/06/28 07:48:43;;;;;;;0.88;0.88;;;48.80;51.00;;;57.62;25.50;101260.25;5069907;27;96845;-72
2021/06/28 07:51:39;;;;;;;1.95;1.02;;;49.00;51.00;;;56.96;26.37;101258.56;5103182;27;99827;-84
2021/06/28 07:54:28;;;;;;;1.23;0.95;;;48.80;51.00;;;57.30;25.70;101255.16;5063824;27;97204;-72
2021/06/28 07:57:09;;;;;;;2.00;1.13;;;48.70;51.20;;;57.75;24.70;101242.38;5046373;27;96879;-74
2021/06/28 07:59:49;;;;;;;0.95;0.85;;;48.70;51.20;;;58.20;24.27;101247.56;5045172;27;96959;-72
2021/06/28 08:02:32;;;;;;;1.85;1.40;;;48.70;51.30;;;58.41;23.78;101241.72;5046401;27;96672;-73
2021/06/28 08:05:15;;;;;;;2.20;1.40;;;48.80;51.30;;;58.65;23.96;101251.16;5088015;27;96557;-73
2021/06/28 08:07:55;;;;;;;1.42;0.80;;;48.80;51.30;;;58.87;23.44;101246.75;5068927;27;97262;-73
2021/06/28 08:10:37;;;;;;;0.70;0.60;;;48.80;51.50;;;58.97;23.37;101248.13;5068205;27;97202;-73
2021/06/28 08:13:20;;;;;;;2.45;1.50;;;48.90;51.60;;;58.85;23.56;101246.59;5065518;27;97832;-73
2021/06/28 08:16:04;;;;;;;0.68;0.63;;;48.80;51.50;;;58.83;23.86;101255.16;5057758;27;96778;-72
2021/06/28 08:18:56;;;;;;;0.60;0.60;;;48.80;51.80;;;58.66;23.82;101259.19;5057821;27;98218;-73
2021/06/28 08:21:48;;;;;;;1.45;1.35;;;48.70;51.80;;;58.44;23.76;101262.81;5056200;27;96484;-73
2021/06/28 08:24:32;;;;;;;2.08;0.75;;;48.50;51.80;;;58.64;24.09;101255.44;5113761;27;96612;-74
2021/06/28 08:27:13;;;;;;;1.33;1.13;;;48.50;52.10;;;58.65;23.97;101245.38;5055722;27;96967;-73
2021/06/28 08:29:54;;;;;;;2.15;1.20;;;48.50;52.30;;;58.50;23.83;101245.84;5056367;27;96641;-73
2021/06/28 08:32:36;;;;;;;2.75;1.25;;;48.40;52.20;;;58.41;24.20;101244.63;5045042;27;97061;-73
2021/06/28 08:35:18;;;;;;;1.27;0.95;;;48.30;52.30;;;58.35;24.24;101243.47;5085973;27;97935;-73
2021/06/28 08:37:59;;;;;;;0.95;0.50;;;48.20;52.30;;;57.96;24.82;101239.47;5101290;27;98671;-73
2021/06/28 08:40:41;;;;;;;0.77;0.75;;;48.00;52.40;;;57.51;25.31;101240.75;5068002;27;96754;-73
2021/06/28 08:43:23;;;;;;;0.60;0.60;;;47.70;52.30;;;57.30;25.33;101242.88;5106766;27;96646;-75
2021/06/28 08:46:07;;;;;;;0.65;0.60;;;47.50;52.70;;;57.04;25.29;101244.69;5120065;27;96678;-75
2021/06/28 08:48:50;;;;;;;1.58;1.30;;;47.30;52.60;;;56.52;26.48;101249.63;5093622;27;96476;-72
2021/06/28 08:51:33;;;;;;;1.13;0.75;;;47.00;52.80;;;56.45;26.21;101250.56;5039450;27;97032;-74
2021/06/28 08:54:15;;;;;;;2.83;0.77;;;46.80;53.10;;;56.37;26.41;101243.47;5074358;27;96903;-73
2021/06/28 08:56:57;;;;;;;1.13;0.88;;;46.60;53.20;;;56.24;26.80;101246.81;5092039;27;96854;-72
2021/06/28 08:59:41;;;;;;;1.35;0.95;;;46.40;53.20;;;55.98;26.89;101249.88;5108429;27;96753;-75
2021/06/28 09:02:23;;;;;;;0.75;0.75;;;46.30;53.30;;;55.15;27.67;101242.88;5037734;27;96537;-75
2021/06/28 09:05:12;;;;;;;0.68;0.63;;;46.00;53.30;;;54.64;27.99;101253.84;5067527;27;96829;-74
2021/06/28 09:08:10;;;;;;;1.20;1.10;;;45.60;53.60;;;54.40;28.84;101241.16;5032149;27;96832;-74
2021/06/28 09:10:53;;;;;;;2.20;1.33;;;45.30;53.60;;;54.08;29.83;101239.88;5100751;27;96577;-74
2021/06/28 09:13:41;;;;;;;0.43;0.43;;;45.00;54.30;;;53.23;30.51;101234.13;5044533;27;96777;-74
2021/06/28 09:16:26;;;;;;;0.82;0.68;;;44.70;54.00;;;52.15;31.58;101232.41;5068809;27;96908;-74
2021/06/28 09:19:12;;;;;;;0.98;0.77;;;44.30;54.40;;;52.24;30.64;101227.56;5067837;27;97081;-72
2021/06/28 09:21:58;;;;;;;0.63;0.63;;;43.90;54.60;;;52.19;31.08;101233.53;5064331;27;97018;-73
2021/06/28 09:24:41;;;;;;;1.35;0.95;;;43.60;54.70;;;51.99;30.72;101231.72;5085958;27;96948;-74
2021/06/28 09:27:25;;;;;;;0.90;0.70;;;43.40;55.00;;;51.42;31.36;101227.09;5064792;27;96948;-74
2021/06/28 09:30:19;;;;;;;1.92;0.60;;;43.20;55.00;;;51.11;31.76;101226.34;5048505;27;96870;-74
2021/06/28 09:33:05;;;;;;;0.82;0.60;;;43.00;54.80;;;51.30;31.20;101223.84;5062261;27;97001;-73
2021/06/28 09:35:48;;;;;;;1.15;0.90;;;42.80;55.10;;;51.00;31.14;101221.00;5050051;27;96725;-73
2021/06/28 09:38:37;;;;;;;5.28;0.90;;;42.60;55.10;;;50.61;31.52;101221.53;5070338;27;96557;-74
2021/06/28 09:41:35;;;;;;;0.88;0.85;;;42.40;54.90;;;50.40;31.64;101222.25;5111094;27;97010;-74
2021/06/28 09:44:16;;;;;;;0.13;0.13;;;42.20;55.30;;;49.86;32.13;101222.59;5068505;27;96923;-74
2021/06/28 09:47:17;;;;;;;0.50;0.50;;;42.00;55.30;;;49.43;32.40;101226.13;5033494;27;98004;-74
2021/06/28 09:50:09;;;;;;;2.88;1.52;;;41.80;55.80;;;48.93;33.67;101229.50;5043758;27;96560;-72
2021/06/28 09:52:59;;;;;;;0.30;0.30;;;41.60;55.50;;;48.47;34.14;101237.38;5048091;27;96698;-75
2021/06/28 09:56:07;;;;;;;1.40;0.88;;;41.40;55.60;;;47.82;34.70;101235.41;5088737;27;96607;-75
2021/06/28 09:59:27;;;;;;;2.25;1.52;;;41.00;55.60;;;47.02;35.25;101229.41;5092682;27;96540;-75
2021/06/28 10:02:26;;;;;;;1.35;1.17;;;40.80;55.40;;;46.63;36.51;101228.50;5066880;27;96616;-74
2021/06/28 10:05:29;;;;;;;1.85;1.00;;;40.60;55.50;;;46.04;36.82;101225.97;5138150;27;96726;-73
2021/06/28 10:08:33;;;;;;;3.00;0.75;;;40.50;55.80;;;45.47;37.73;101217.84;5084508;27;96650;-72
2021/06/28 10:11:42;;;;;;;1.33;0.93;;;40.40;55.60;;;44.95;38.41;101200.31;5088508;27;96817;-71
2021/06/28 10:14:41;;;;;;;1.60;1.02;;;40.20;55.70;;;44.64;39.09;101197.22;5139072;27;96621;-74
2021/06/28 10:17:44;;;;;;;0.90;0.55;;;40.10;55.70;;;44.24;39.11;101203.63;5089535;27;96644;-74
2021/06/28 10:20:44;;;;;;;0.73;0.60;;;40.00;55.60;;;44.11;39.13;101208.31;5135455;27;96707;-72
2021/06/28 10:23:40;;;;;;;1.70;1.30;;;39.80;55.60;;;43.43;40.15;101216.75;5085809;27;97107;-71
2021/06/28 10:26:39;;;;;;;0.70;0.60;;;39.60;55.50;;;43.42;40.05;101203.94;5122652;27;96673;-72
2021/06/28 10:29:36;;;;;;;0.90;0.80;;;39.40;55.60;;;43.02;40.23;101210.13;5031615;27;96775;-72
2021/06/28 10:32:32;;;;;;;0.82;0.82;;;39.20;55.30;;;42.53;39.91;101210.09;5083940;27;96678;-72
2021/06/28 10:35:33;;;;;;;3.78;1.30;;;38.90;55.20;;;42.03;40.24;101215.50;5087212;27;96687;-72
2021/06/28 10:38:46;;;;;;;1.10;0.77;;;38.60;55.10;;;41.09;41.08;101216.22;5090925;27;96655;-73
2021/06/28 10:42:02;;;;;;;0.43;0.43;;;38.10;54.50;;;40.00;42.01;101215.78;5044466;27;99386;-73
2021/06/28 10:45:03;;;;;;;2.90;1.25;;;37.50;54.90;;;39.13;43.30;101227.25;5039788;27;96603;-73
2021/06/28 10:48:14;;;;;;;1.10;0.88;;;36.80;55.10;;;38.61;43.40;101228.09;5112736;27;97036;-73
2021/06/28 10:51:05;;;;;;;1.80;0.95;;;36.30;55.20;;;38.50;42.92;101221.50;5065821;27;97243;-73
2021/06/28 10:54:15;;;;;;;0.65;0.50;;;35.80;55.70;;;38.64;42.43;101229.16;5041947;27;96990;-73
2021/06/28 10:57:11;;;;;;;1.35;0.75;;;35.60;55.80;;;38.32;42.88;101224.47;5034813;27;96924;-73
2021/06/28 10:59:58;;;;;;;4.43;0.82;;;35.50;55.80;;;37.73;43.59;101217.84;5033592;27;97914;-73
2021/06/28 11:02:46;;;;;;;1.30;1.05;;;35.20;55.70;;;37.33;43.78;101224.25;5038862;27;96686;-73
2021/06/28 11:05:33;;;;;;;0.65;0.65;;;34.80;55.80;;;36.99;44.13;101217.06;5043324;27;96969;-73
2021/06/28 11:08:22;;;;;;;2.88;2.05;;;34.50;55.90;;;36.51;44.58;101226.44;5047414;27;96991;-73
2021/06/28 11:11:58;;;;;;;2.13;1.33;;;34.20;55.90;;;36.08;44.79;101223.19;5033192;27;96800;-72
2021/06/28 11:14:50;;;;;;;1.85;1.13;;;33.70;55.80;;;35.64;45.55;101223.84;5041941;27;97683;-72
2021/06/28 11:17:49;;;;;;;1.55;1.05;;;33.40;56.30;;;35.34;45.53;101228.19;5035701;27;96939;-72
2021/06/28 11:20:38;;;;;;;1.05;0.70;;;33.00;56.40;;;34.96;45.88;101230.47;5036550;27;97001;-73
2021/06/28 11:23:31;;;;;;;1.80;1.42;;;32.70;56.40;;;34.68;45.87;101239.09;5037037;27;96957;-73